sensor_id;sensor_type;location;lat;lon;timestamp;pressure;altitude;pressure_sealevel;temperature;humidity
59337;BME280;45115;52.002;4.686;2023-04-20T00:02:11;102532.22;;;7.99;45.37
59337;BME280;45115;52.002;4.686;2023-04-20T00:04:39;102537.16;;;8.08;44.74
59337;BME280;45115;52.002;4.686;2023-04-20T00:07:06;102526.75;;;7.99;45.44
59337;BME280;45115;52.002;4.686;2023-04-20T00:09:32;102522.91;;;8.03;45.36
59337;BME280;45115;52.002;4.686;2023-04-20T00:11:59;102532.94;;;8.02;45.19
59337;BME280;45115;52.002;4.686;2023-04-20T00:14:27;102516.97;;;8.10;43.61
59337;BME280;45115;52.002;4.686;2023-04-20T00:16:54;102514.53;;;8.06;43.86
59337;BME280;45115;52.002;4.686;2023-04-20T00:19:21;102516.97;;;8.10;44.13
59337;BME280;45115;52.002;4.686;2023-04-20T00:21:47;102517.25;;;8.06;44.09
59337;BME280;45115;52.002;4.686;2023-04-20T00:24:14;102511.53;;;7.94;44.95
59337;BME280;45115;52.002;4.686;2023-04-20T00:26:40;102512.13;;;8.00;44.80
59337;BME280;45115;52.002;4.686;2023-04-20T00:29:07;102520.41;;;7.98;45.28
59337;BME280;45115;52.002;4.686;2023-04-20T00:31:36;102513.91;;;8.01;45.27
59337;BME280;45115;52.002;4.686;2023-04-20T00:34:03;102516.56;;;8.02;45.85
59337;BME280;45115;52.002;4.686;2023-04-20T00:36:29;102509.06;;;8.06;45.91
59337;BME280;45115;52.002;4.686;2023-04-20T00:38:57;102500.97;;;8.04;45.39
59337;BME280;45115;52.002;4.686;2023-04-20T00:41:27;102508.28;;;8.04;45.68
59337;BME280;45115;52.002;4.686;2023-04-20T00:43:53;102510.19;;;8.02;45.68
59337;BME280;45115;52.002;4.686;2023-04-20T00:46:21;102503.53;;;7.91;46.10
59337;BME280;45115;52.002;4.686;2023-04-20T00:48:49;102496.75;;;7.83;47.10
59337;BME280;45115;52.002;4.686;2023-04-20T00:51:17;102495.53;;;7.73;47.88
59337;BME280;45115;52.002;4.686;2023-04-20T00:53:44;102493.81;;;7.70;48.48
59337;BME280;45115;52.002;4.686;2023-04-20T00:56:12;102493.53;;;7.59;49.22
59337;BME280;45115;52.002;4.686;2023-04-20T00:58:40;102487.13;;;7.45;50.37
59337;BME280;45115;52.002;4.686;2023-04-20T01:01:07;102481.19;;;7.37;50.50
59337;BME280;45115;52.002;4.686;2023-04-20T01:03:34;102476.31;;;7.26;51.35
59337;BME280;45115;52.002;4.686;2023-04-20T01:06:04;102472.03;;;7.22;50.92
59337;BME280;45115;52.002;4.686;2023-04-20T01:08:31;102469.63;;;7.16;51.09
59337;BME280;45115;52.002;4.686;2023-04-20T01:10:57;102465.47;;;7.09;50.65
59337;BME280;45115;52.002;4.686;2023-04-20T01:13:24;102458.38;;;7.07;50.78
59337;BME280;45115;52.002;4.686;2023-04-20T01:15:51;102458.38;;;7.07;50.40
59337;BME280;45115;52.002;4.686;2023-04-20T01:18:18;102447.13;;;7.13;50.58
59337;BME280;45115;52.002;4.686;2023-04-20T01:20:45;102448.53;;;7.20;50.06
59337;BME280;45115;52.002;4.686;2023-04-20T01:23:13;102447.03;;;7.14;50.11
59337;BME280;45115;52.002;4.686;2023-04-20T01:25:42;102436.22;;;7.13;50.34
59337;BME280;45115;52.002;4.686;2023-04-20T01:28:08;102433.25;;;7.17;49.64
59337;BME280;45115;52.002;4.686;2023-04-20T01:30:36;102428.50;;;7.21;49.28
59337;BME280;45115;52.002;4.686;2023-04-20T01:33:03;102424.38;;;7.14;49.44
59337;BME280;45115;52.002;4.686;2023-04-20T01:35:29;102423.59;;;7.27;48.74
59337;BME280;45115;52.002;4.686;2023-04-20T01:37:56;102418.16;;;7.27;48.82
59337;BME280;45115;52.002;4.686;2023-04-20T01:40:24;102412.53;;;7.30;48.93
59337;BME280;45115;52.002;4.686;2023-04-20T01:42:51;102413.41;;;7.31;49.27
59337;BME280;45115;52.002;4.686;2023-04-20T01:45:17;102406.97;;;7.32;49.41
59337;BME280;45115;52.002;4.686;2023-04-20T01:47:44;102397.75;;;7.19;50.09
59337;BME280;45115;52.002;4.686;2023-04-20T01:50:10;102398.50;;;7.21;50.66
59337;BME280;45115;52.002;4.686;2023-04-20T01:52:37;102396.16;;;7.15;51.23
59337;BME280;45115;52.002;4.686;2023-04-20T01:55:05;102398.88;;;7.15;52.14
59337;BME280;45115;52.002;4.686;2023-04-20T01:57:33;102401.22;;;7.05;53.02
59337;BME280;45115;52.002;4.686;2023-04-20T02:00:00;102400.97;;;7.10;53.48
59337;BME280;45115;52.002;4.686;2023-04-20T02:02:26;102401.75;;;6.96;54.22
59337;BME280;45115;52.002;4.686;2023-04-20T02:04:53;102393.81;;;6.92;55.08
59337;BME280;45115;52.002;4.686;2023-04-20T02:07:20;102387.56;;;6.90;55.59
59337;BME280;45115;52.002;4.686;2023-04-20T02:09:47;102384.69;;;6.93;55.78
59337;BME280;45115;52.002;4.686;2023-04-20T02:12:13;102379.81;;;6.82;56.38
59337;BME280;45115;52.002;4.686;2023-04-20T02:14:41;102380.84;;;6.79;56.48
59337;BME280;45115;52.002;4.686;2023-04-20T02:17:09;102372.72;;;6.62;58.08
59337;BME280;45115;52.002;4.686;2023-04-20T02:19:36;102370.25;;;6.58;58.74
59337;BME280;45115;52.002;4.686;2023-04-20T02:22:02;102368.81;;;6.51;61.50
59337;BME280;45115;52.002;4.686;2023-04-20T02:24:29;102371.63;;;6.32;61.57
59337;BME280;45115;52.002;4.686;2023-04-20T02:26:55;102364.66;;;6.27;62.13
59337;BME280;45115;52.002;4.686;2023-04-20T02:29:23;102366.50;;;6.26;63.43
59337;BME280;45115;52.002;4.686;2023-04-20T02:31:51;102361.78;;;6.30;64.10
59337;BME280;45115;52.002;4.686;2023-04-20T02:34:17;102359.94;;;6.30;65.49
59337;BME280;45115;52.002;4.686;2023-04-20T02:36:44;102356.44;;;6.28;65.08
59337;BME280;45115;52.002;4.686;2023-04-20T02:39:11;102345.16;;;6.19;66.42
59337;BME280;45115;52.002;4.686;2023-04-20T02:41:38;102351.31;;;6.22;66.96
59337;BME280;45115;52.002;4.686;2023-04-20T02:44:05;102352.91;;;6.09;67.71
59337;BME280;45115;52.002;4.686;2023-04-20T02:46:35;102350.91;;;6.13;68.23
59337;BME280;45115;52.002;4.686;2023-04-20T02:49:03;102345.16;;;6.19;68.11
59337;BME280;45115;52.002;4.686;2023-04-20T02:51:34;102345.25;;;6.17;68.72
59337;BME280;45115;52.002;4.686;2023-04-20T02:54:01;102341.28;;;6.23;69.46
59337;BME280;45115;52.002;4.686;2023-04-20T02:56:28;102341.38;;;6.21;70.14
59337;BME280;45115;52.002;4.686;2023-04-20T02:59:00;102337.97;;;6.35;70.75
59337;BME280;45115;52.002;4.686;2023-04-20T03:01:39;102336.72;;;6.40;71.34
59337;BME280;45115;52.002;4.686;2023-04-20T03:04:15;102332.31;;;6.55;70.96
59337;BME280;45115;52.002;4.686;2023-04-20T03:07:02;102331.97;;;6.61;71.06
59337;BME280;45115;52.002;4.686;2023-04-20T03:09:38;102318.63;;;6.72;70.58
59337;BME280;45115;52.002;4.686;2023-04-20T03:12:32;102317.09;;;6.84;70.88
59337;BME280;45115;52.002;4.686;2023-04-20T03:15:25;102309.88;;;6.82;71.73
59337;BME280;45115;52.002;4.686;2023-04-20T03:18:15;102315.13;;;6.70;72.54
59337;BME280;45115;52.002;4.686;2023-04-20T03:20:44;102310.47;;;6.72;71.88
59337;BME280;45115;52.002;4.686;2023-04-20T03:23:11;102313.28;;;6.70;72.66
59337;BME280;45115;52.002;4.686;2023-04-20T03:25:37;102306.63;;;6.76;72.97
59337;BME280;45115;52.002;4.686;2023-04-20T03:28:09;102300.75;;;6.84;72.91
59337;BME280;45115;52.002;4.686;2023-04-20T03:30:39;102303.13;;;6.90;73.12
59337;BME280;45115;52.002;4.686;2023-04-20T03:33:12;102292.19;;;7.07;72.51
59337;BME280;45115;52.002;4.686;2023-04-20T03:35:38;102294.97;;;7.21;71.70
59337;BME280;45115;52.002;4.686;2023-04-20T03:38:08;102291.09;;;7.25;71.84
59337;BME280;45115;52.002;4.686;2023-04-20T03:40:35;102278.34;;;7.25;71.14
59337;BME280;45115;52.002;4.686;2023-04-20T03:43:03;102281.25;;;7.38;71.03
59337;BME280;45115;52.002;4.686;2023-04-20T03:45:29;102271.84;;;7.43;71.34
59337;BME280;45115;52.002;4.686;2023-04-20T03:47:56;102270.84;;;7.44;71.79
59337;BME280;45115;52.002;4.686;2023-04-20T03:50:24;102261.44;;;7.50;71.39
59337;BME280;45115;52.002;4.686;2023-04-20T03:52:51;102267.69;;;7.52;71.49
59337;BME280;45115;52.002;4.686;2023-04-20T03:55:19;102261.59;;;7.62;71.88
59337;BME280;45115;52.002;4.686;2023-04-20T03:57:53;102256.06;;;7.64;71.70
59337;BME280;45115;52.002;4.686;2023-04-20T04:00:20;102252.69;;;7.74;71.90
59337;BME280;45115;52.002;4.686;2023-04-20T04:02:46;102259.41;;;7.83;70.93
59337;BME280;45115;52.002;4.686;2023-04-20T04:05:19;102264.88;;;7.83;70.36
59337;BME280;45115;52.002;4.686;2023-04-20T04:07:48;102252.72;;;7.88;70.29
59337;BME280;45115;52.002;4.686;2023-04-20T04:10:14;102255.59;;;7.85;71.13
59337;BME280;45115;52.002;4.686;2023-04-20T04:12:44;102257.28;;;7.88;71.60
59337;BME280;45115;52.002;4.686;2023-04-20T04:15:11;102263.94;;;7.98;70.82
59337;BME280;45115;52.002;4.686;2023-04-20T04:17:46;102247.44;;;7.85;71.17
59337;BME280;45115;52.002;4.686;2023-04-20T04:20:13;102252.31;;;7.94;71.87
59337;BME280;45115;52.002;4.686;2023-04-20T04:22:40;102239.78;;;7.92;70.96
59337;BME280;45115;52.002;4.686;2023-04-20T04:25:25;102239.78;;;7.92;71.70
59337;BME280;45115;52.002;4.686;2023-04-20T04:27:54;102235.25;;;7.91;71.78
59337;BME280;45115;52.002;4.686;2023-04-20T04:30:22;102236.34;;;7.88;72.21
59337;BME280;45115;52.002;4.686;2023-04-20T04:32:49;102230.09;;;7.86;72.41
59337;BME280;45115;52.002;4.686;2023-04-20T04:35:16;102222.22;;;7.96;71.97
59337;BME280;45115;52.002;4.686;2023-04-20T04:37:43;102223.78;;;8.00;71.76
59337;BME280;45115;52.002;4.686;2023-04-20T04:40:11;102213.03;;;7.83;71.63
59337;BME280;45115;52.002;4.686;2023-04-20T04:42:38;102209.16;;;7.87;72.67
59337;BME280;45115;52.002;4.686;2023-04-20T04:45:08;102206.50;;;7.85;72.28
59337;BME280;45115;52.002;4.686;2023-04-20T04:47:37;102205.00;;;7.96;73.19
59337;BME280;45115;52.002;4.686;2023-04-20T04:50:07;102204.78;;;7.84;73.69
59337;BME280;45115;52.002;4.686;2023-04-20T04:52:35;102194.84;;;7.83;72.94
59337;BME280;45115;52.002;4.686;2023-04-20T04:55:02;102190.25;;;7.84;73.36
59337;BME280;45115;52.002;4.686;2023-04-20T04:57:32;102193.28;;;7.93;73.71
59337;BME280;45115;52.002;4.686;2023-04-20T04:59:59;102191.03;;;7.86;72.94
59337;BME280;45115;52.002;4.686;2023-04-20T05:02:27;102192.88;;;8.00;73.28
59337;BME280;45115;52.002;4.686;2023-04-20T05:04:54;102188.06;;;8.05;73.04
59337;BME280;45115;52.002;4.686;2023-04-20T05:07:21;102185.03;;;8.09;73.43
59337;BME280;45115;52.002;4.686;2023-04-20T05:09:49;102178.19;;;8.16;72.04
59337;BME280;45115;52.002;4.686;2023-04-20T05:12:15;102176.06;;;8.21;72.82
59337;BME280;45115;52.002;4.686;2023-04-20T05:14:42;102173.72;;;8.15;72.50
59337;BME280;45115;52.002;4.686;2023-04-20T05:17:09;102168.28;;;8.15;72.45
59337;BME280;45115;52.002;4.686;2023-04-20T05:19:37;102158.34;;;8.28;72.15
59337;BME280;45115;52.002;4.686;2023-04-20T05:22:04;102166.44;;;8.30;72.84
59337;BME280;45115;52.002;4.686;2023-04-20T05:24:31;102168.09;;;8.32;73.25
59337;BME280;45115;52.002;4.686;2023-04-20T05:26:57;102161.38;;;8.38;72.86
59337;BME280;45115;52.002;4.686;2023-04-20T05:29:24;102156.97;;;8.35;72.33
59337;BME280;45115;52.002;4.686;2023-04-20T05:31:51;102145.56;;;8.43;72.69
59337;BME280;45115;52.002;4.686;2023-04-20T05:34:17;102155.03;;;8.37;72.33
59337;BME280;45115;52.002;4.686;2023-04-20T05:36:46;102146.84;;;8.37;72.51
59337;BME280;45115;52.002;4.686;2023-04-20T05:39:13;102150.25;;;8.41;72.27
59337;BME280;45115;52.002;4.686;2023-04-20T05:41:40;102153.56;;;8.46;71.97
59337;BME280;45115;52.002;4.686;2023-04-20T05:44:07;102159.00;;;8.46;71.47
59337;BME280;45115;52.002;4.686;2023-04-20T05:46:33;102151.84;;;8.57;70.16
59337;BME280;45115;52.002;4.686;2023-04-20T05:49:00;102154.50;;;8.73;67.77
59337;BME280;45115;52.002;4.686;2023-04-20T05:51:27;102153.56;;;8.86;65.39
59337;BME280;45115;52.002;4.686;2023-04-20T05:53:59;102163.47;;;9.01;64.27
59337;BME280;45115;52.002;4.686;2023-04-20T05:56:25;102152.03;;;9.09;62.95
59337;BME280;45115;52.002;4.686;2023-04-20T05:58:52;102159.22;;;9.10;63.37
59337;BME280;45115;52.002;4.686;2023-04-20T06:01:19;102166.91;;;9.18;60.45
59337;BME280;45115;52.002;4.686;2023-04-20T06:03:46;102164.19;;;9.18;60.26
59337;BME280;45115;52.002;4.686;2023-04-20T06:06:13;102170.66;;;9.17;59.40
59337;BME280;45115;52.002;4.686;2023-04-20T06:08:40;102165.47;;;9.12;58.50
59337;BME280;45115;52.002;4.686;2023-04-20T06:11:08;102175.72;;;9.09;58.20
59337;BME280;45115;52.002;4.686;2023-04-20T06:13:35;102171.44;;;9.04;58.88
59337;BME280;45115;52.002;4.686;2023-04-20T06:16:01;102171.25;;;9.08;58.86
59337;BME280;45115;52.002;4.686;2023-04-20T06:18:28;102173.81;;;8.96;59.11
59337;BME280;45115;52.002;4.686;2023-04-20T06:20:55;102165.84;;;8.93;59.00
59337;BME280;45115;52.002;4.686;2023-04-20T06:23:21;102163.28;;;8.90;58.58
59337;BME280;45115;52.002;4.686;2023-04-20T06:25:48;102152.47;;;8.89;58.56
59337;BME280;45115;52.002;4.686;2023-04-20T06:28:17;102148.88;;;8.88;58.39
59337;BME280;45115;52.002;4.686;2023-04-20T06:30:43;102153.25;;;8.91;58.40
59337;BME280;45115;52.002;4.686;2023-04-20T06:33:10;102151.84;;;8.98;59.04
59337;BME280;45115;52.002;4.686;2023-04-20T06:35:41;102145.50;;;8.97;59.26
59337;BME280;45115;52.002;4.686;2023-04-20T06:38:08;102152.31;;;9.04;59.12
59337;BME280;45115;52.002;4.686;2023-04-20T06:40:34;102143.25;;;9.04;58.62
59337;BME280;45115;52.002;4.686;2023-04-20T06:43:01;102143.38;;;9.02;59.34
59337;BME280;45115;52.002;4.686;2023-04-20T06:45:29;102135.63;;;9.09;59.36
59337;BME280;45115;52.002;4.686;2023-04-20T06:47:55;102135.78;;;9.20;59.20
59337;BME280;45115;52.002;4.686;2023-04-20T06:50:22;102134.22;;;9.16;59.38
59337;BME280;45115;52.002;4.686;2023-04-20T06:52:49;102132.22;;;9.06;60.30
59337;BME280;45115;52.002;4.686;2023-04-20T06:55:16;102124.00;;;9.06;60.78
59337;BME280;45115;52.002;4.686;2023-04-20T06:57:43;102130.38;;;9.06;61.12
59337;BME280;45115;52.002;4.686;2023-04-20T07:00:10;102121.13;;;8.94;60.98
59337;BME280;45115;52.002;4.686;2023-04-20T07:02:42;102130.03;;;8.84;61.05
59337;BME280;45115;52.002;4.686;2023-04-20T07:05:09;102100.16;;;8.68;62.54
59337;BME280;45115;52.002;4.686;2023-04-20T07:07:36;102118.69;;;8.63;63.58
59337;BME280;45115;52.002;4.686;2023-04-20T07:10:03;102106.06;;;8.48;64.00
59337;BME280;45115;52.002;4.686;2023-04-20T07:12:30;102120.78;;;8.46;64.68
59337;BME280;45115;52.002;4.686;2023-04-20T07:14:57;102134.44;;;8.46;64.78
59337;BME280;45115;52.002;4.686;2023-04-20T07:17:26;102128.41;;;8.41;65.42
59337;BME280;45115;52.002;4.686;2023-04-20T07:19:55;102128.50;;;8.39;65.96
59337;BME280;45115;52.002;4.686;2023-04-20T07:22:22;102132.03;;;8.41;65.73
59337;BME280;45115;52.002;4.686;2023-04-20T07:24:49;102141.06;;;8.28;66.67
59337;BME280;45115;52.002;4.686;2023-04-20T07:27:16;102138.44;;;8.12;67.39
59337;BME280;45115;52.002;4.686;2023-04-20T07:29:42;102134.53;;;8.02;67.90
59337;BME280;45115;52.002;4.686;2023-04-20T07:32:09;102138.16;;;8.03;68.09
59337;BME280;45115;52.002;4.686;2023-04-20T07:34:35;102150.78;;;7.89;70.51
59337;BME280;45115;52.002;4.686;2023-04-20T07:37:03;102140.53;;;7.65;73.44
59337;BME280;45115;52.002;4.686;2023-04-20T07:39:30;102138.06;;;7.46;75.38
59337;BME280;45115;52.002;4.686;2023-04-20T07:41:56;102142.59;;;7.32;77.64
59337;BME280;45115;52.002;4.686;2023-04-20T07:44:23;102134.97;;;7.23;78.76
59337;BME280;45115;52.002;4.686;2023-04-20T07:46:50;102138.19;;;7.15;79.73
59337;BME280;45115;52.002;4.686;2023-04-20T07:49:16;102134.56;;;7.15;78.76
59337;BME280;45115;52.002;4.686;2023-04-20T07:51:43;102128.44;;;7.11;80.97
59337;BME280;45115;52.002;4.686;2023-04-20T07:54:11;102130.34;;;7.09;80.84
59337;BME280;45115;52.002;4.686;2023-04-20T07:56:37;102131.19;;;6.96;81.54
59337;BME280;45115;52.002;4.686;2023-04-20T07:59:04;102137.97;;;6.89;82.47
59337;BME280;45115;52.002;4.686;2023-04-20T08:01:30;102145.53;;;6.84;82.10
59337;BME280;45115;52.002;4.686;2023-04-20T08:03:58;102137.69;;;6.77;81.90
59337;BME280;45115;52.002;4.686;2023-04-20T08:06:24;102160.47;;;6.76;82.45
59337;BME280;45115;52.002;4.686;2023-04-20T08:08:52;102148.69;;;6.76;83.19
59337;BME280;45115;52.002;4.686;2023-04-20T08:11:20;102157.75;;;6.76;83.63
59337;BME280;45115;52.002;4.686;2023-04-20T08:13:48;102153.34;;;6.74;83.16
59337;BME280;45115;52.002;4.686;2023-04-20T08:16:16;102147.88;;;6.74;84.34
59337;BME280;45115;52.002;4.686;2023-04-20T08:18:43;102154.13;;;6.76;85.24
59337;BME280;45115;52.002;4.686;2023-04-20T08:21:09;102142.91;;;6.66;84.46
59337;BME280;45115;52.002;4.686;2023-04-20T08:23:36;102154.22;;;6.59;85.56
59337;BME280;45115;52.002;4.686;2023-04-20T08:26:03;102134.09;;;6.61;86.37
59337;BME280;45115;52.002;4.686;2023-04-20T08:28:31;102121.91;;;6.68;85.26
59337;BME280;45115;52.002;4.686;2023-04-20T08:30:58;102124.72;;;6.67;85.31
59337;BME280;45115;52.002;4.686;2023-04-20T08:33:24;102124.19;;;6.60;85.25
59337;BME280;45115;52.002;4.686;2023-04-20T08:35:51;102119.03;;;6.56;84.25
59337;BME280;45115;52.002;4.686;2023-04-20T08:38:18;102125.31;;;6.56;84.46
59337;BME280;45115;52.002;4.686;2023-04-20T08:40:45;102124.63;;;6.68;86.52
59337;BME280;45115;52.002;4.686;2023-04-20T08:43:12;102126.19;;;6.72;84.19
59337;BME280;45115;52.002;4.686;2023-04-20T08:45:41;102119.00;;;6.87;84.75
59337;BME280;45115;52.002;4.686;2023-04-20T08:48:10;102110.22;;;6.82;83.47
59337;BME280;45115;52.002;4.686;2023-04-20T08:50:40;102113.34;;;6.90;84.56
59337;BME280;45115;52.002;4.686;2023-04-20T08:53:06;102101.53;;;7.05;84.32
59337;BME280;45115;52.002;4.686;2023-04-20T08:55:34;102101.81;;;7.01;84.64
59337;BME280;45115;52.002;4.686;2023-04-20T08:58:00;102093.31;;;6.91;83.87
59337;BME280;45115;52.002;4.686;2023-04-20T09:00:27;102095.38;;;7.17;84.73
59337;BME280;45115;52.002;4.686;2023-04-20T09:02:56;102099.78;;;7.34;83.63
59337;BME280;45115;52.002;4.686;2023-04-20T09:05:24;102091.69;;;7.32;82.33
59337;BME280;45115;52.002;4.686;2023-04-20T09:07:52;102107.16;;;7.32;82.90
59337;BME280;45115;52.002;4.686;2023-04-20T09:10:19;102093.53;;;7.32;83.52
59337;BME280;45115;52.002;4.686;2023-04-20T09:12:48;102098.69;;;7.22;82.96
59337;BME280;45115;52.002;4.686;2023-04-20T09:15:23;102104.41;;;7.18;82.37
59337;BME280;45115;52.002;4.686;2023-04-20T09:17:50;102081.94;;;7.28;83.06
59337;BME280;45115;52.002;4.686;2023-04-20T09:20:27;102081.34;;;7.23;82.70
59337;BME280;45115;52.002;4.686;2023-04-20T09:22:54;102085.72;;;7.12;82.85
59337;BME280;45115;52.002;4.686;2023-04-20T09:25:21;102098.75;;;7.21;82.72
59337;BME280;45115;52.002;4.686;2023-04-20T09:27:56;102093.69;;;7.15;82.45
59337;BME280;45115;52.002;4.686;2023-04-20T09:30:23;102094.59;;;7.15;83.78
59337;BME280;45115;52.002;4.686;2023-04-20T09:33:00;102089.44;;;7.25;82.05
59337;BME280;45115;52.002;4.686;2023-04-20T09:35:28;102095.28;;;7.19;81.71
59337;BME280;45115;52.002;4.686;2023-04-20T09:37:55;102088.84;;;7.20;82.57
59337;BME280;45115;52.002;4.686;2023-04-20T09:40:23;102077.41;;;7.43;82.99
59337;BME280;45115;52.002;4.686;2023-04-20T09:42:52;102062.25;;;7.67;81.40
59337;BME280;45115;52.002;4.686;2023-04-20T09:45:19;102079.00;;;7.61;80.04
59337;BME280;45115;52.002;4.686;2023-04-20T09:47:46;102074.72;;;7.71;80.73
59337;BME280;45115;52.002;4.686;2023-04-20T09:50:15;102075.78;;;7.82;80.24
59337;BME280;45115;52.002;4.686;2023-04-20T09:52:44;102062.00;;;8.12;78.91
59337;BME280;45115;52.002;4.686;2023-04-20T09:55:13;102053.72;;;8.28;77.83
59337;BME280;45115;52.002;4.686;2023-04-20T09:57:40;102046.66;;;8.52;77.41
59337;BME280;45115;52.002;4.686;2023-04-20T10:00:08;102052.63;;;8.71;77.61
59337;BME280;45115;52.002;4.686;2023-04-20T10:02:37;102059.78;;;8.59;76.07
59337;BME280;45115;52.002;4.686;2023-04-20T10:05:05;102062.09;;;8.39;77.22
59337;BME280;45115;52.002;4.686;2023-04-20T10:07:32;102048.34;;;8.67;76.58
59337;BME280;45115;52.002;4.686;2023-04-20T10:10:10;102050.63;;;8.34;76.09
59337;BME280;45115;52.002;4.686;2023-04-20T10:12:47;102045.72;;;8.65;76.08
59337;BME280;45115;52.002;4.686;2023-04-20T10:15:14;102041.16;;;8.66;74.84
59337;BME280;45115;52.002;4.686;2023-04-20T10:17:41;102046.34;;;8.83;76.07
59337;BME280;45115;52.002;4.686;2023-04-20T10:20:21;102035.94;;;9.15;74.44
59337;BME280;45115;52.002;4.686;2023-04-20T10:22:49;102044.25;;;9.13;73.47
59337;BME280;45115;52.002;4.686;2023-04-20T10:25:19;102042.94;;;9.44;72.60
59337;BME280;45115;52.002;4.686;2023-04-20T10:27:53;102041.06;;;9.19;72.22
59337;BME280;45115;52.002;4.686;2023-04-20T10:30:21;102048.81;;;9.13;73.76
59337;BME280;45115;52.002;4.686;2023-04-20T10:32:48;102048.00;;;8.98;72.56
59337;BME280;45115;52.002;4.686;2023-04-20T10:35:15;102052.84;;;9.07;73.28
59337;BME280;45115;52.002;4.686;2023-04-20T10:37:48;102032.94;;;9.05;73.50
59337;BME280;45115;52.002;4.686;2023-04-20T10:40:15;102031.44;;;9.26;71.88
59337;BME280;45115;52.002;4.686;2023-04-20T10:42:44;102025.22;;;9.24;72.01
59337;BME280;45115;52.002;4.686;2023-04-20T10:45:11;102029.03;;;9.22;72.55
59337;BME280;45115;52.002;4.686;2023-04-20T10:47:38;102031.34;;;9.40;72.18
59337;BME280;45115;52.002;4.686;2023-04-20T10:50:10;102017.91;;;9.50;71.21
59337;BME280;45115;52.002;4.686;2023-04-20T10:52:39;102023.56;;;9.34;72.10
59337;BME280;45115;52.002;4.686;2023-04-20T10:55:17;102037.03;;;9.25;71.00
59337;BME280;45115;52.002;4.686;2023-04-20T10:57:46;102029.44;;;9.03;72.28
59337;BME280;45115;52.002;4.686;2023-04-20T11:00:14;102032.34;;;8.87;71.89
59337;BME280;45115;52.002;4.686;2023-04-20T11:02:46;102021.47;;;9.00;72.47
59337;BME280;45115;52.002;4.686;2023-04-20T11:05:13;102023.31;;;8.99;73.06
59337;BME280;45115;52.002;4.686;2023-04-20T11:07:46;102025.59;;;8.93;72.85
59337;BME280;45115;52.002;4.686;2023-04-20T11:10:13;102017.97;;;8.71;72.96
59337;BME280;45115;52.002;4.686;2023-04-20T11:12:39;102018.47;;;8.78;73.44
59337;BME280;45115;52.002;4.686;2023-04-20T11:15:08;102011.28;;;8.89;72.68
59337;BME280;45115;52.002;4.686;2023-04-20T11:17:36;102018.50;;;9.03;71.69
59337;BME280;45115;52.002;4.686;2023-04-20T11:20:04;101993.84;;;9.42;71.59
59337;BME280;45115;52.002;4.686;2023-04-20T11:22:35;101998.16;;;9.82;68.53
59337;BME280;45115;52.002;4.686;2023-04-20T11:25:03;101996.50;;;9.92;69.14
59337;BME280;45115;52.002;4.686;2023-04-20T11:27:31;101997.03;;;10.10;68.37
59337;BME280;45115;52.002;4.686;2023-04-20T11:29:58;101988.63;;;10.00;67.43
59337;BME280;45115;52.002;4.686;2023-04-20T11:32:31;101979.44;;;9.89;67.49
59337;BME280;45115;52.002;4.686;2023-04-20T11:34:58;101971.06;;;10.03;68.45
59337;BME280;45115;52.002;4.686;2023-04-20T11:37:26;101962.81;;;10.86;67.52
59337;BME280;45115;52.002;4.686;2023-04-20T11:40:01;101966.72;;;11.06;64.80
59337;BME280;45115;52.002;4.686;2023-04-20T11:42:29;101961.06;;;10.85;64.10
59337;BME280;45115;52.002;4.686;2023-04-20T11:44:57;101958.97;;;10.54;64.60
59337;BME280;45115;52.002;4.686;2023-04-20T11:47:24;101961.53;;;11.14;63.64
59337;BME280;45115;52.002;4.686;2023-04-20T11:49:53;101968.56;;;11.40;61.87
59337;BME280;45115;52.002;4.686;2023-04-20T11:52:20;101951.41;;;11.03;63.13
59337;BME280;45115;52.002;4.686;2023-04-20T11:54:47;101943.56;;;11.10;63.29
59337;BME280;45115;52.002;4.686;2023-04-20T11:57:13;101959.22;;;10.86;62.93
59337;BME280;45115;52.002;4.686;2023-04-20T11:59:40;101949.31;;;11.18;61.69
59337;BME280;45115;52.002;4.686;2023-04-20T12:02:07;101942.47;;;11.12;60.83
59337;BME280;45115;52.002;4.686;2023-04-20T12:04:33;101954.31;;;10.78;61.77
59337;BME280;45115;52.002;4.686;2023-04-20T12:07:01;101957.31;;;10.86;61.03
59337;BME280;45115;52.002;4.686;2023-04-20T12:09:28;101955.13;;;11.02;61.27
59337;BME280;45115;52.002;4.686;2023-04-20T12:12:00;101947.81;;;11.25;58.61
59337;BME280;45115;52.002;4.686;2023-04-20T12:14:27;101948.44;;;11.17;60.08
59337;BME280;45115;52.002;4.686;2023-04-20T12:16:54;101935.75;;;11.61;59.73
59337;BME280;45115;52.002;4.686;2023-04-20T12:19:20;101943.25;;;11.92;58.58
59337;BME280;45115;52.002;4.686;2023-04-20T12:21:47;101928.34;;;12.16;56.68
59337;BME280;45115;52.002;4.686;2023-04-20T12:24:15;101928.28;;;11.85;57.47
59337;BME280;45115;52.002;4.686;2023-04-20T12:26:42;101932.66;;;11.65;58.53
59337;BME280;45115;52.002;4.686;2023-04-20T12:29:08;101939.50;;;11.60;57.91
59337;BME280;45115;52.002;4.686;2023-04-20T12:31:35;101930.53;;;11.58;59.85
59337;BME280;45115;52.002;4.686;2023-04-20T12:34:02;101935.81;;;11.04;60.30
59337;BME280;45115;52.002;4.686;2023-04-20T12:36:29;101922.59;;;10.52;63.67
59337;BME280;45115;52.002;4.686;2023-04-20T12:38:56;101925.06;;;10.79;65.67
59337;BME280;45115;52.002;4.686;2023-04-20T12:41:26;101921.94;;;10.83;61.75
59337;BME280;45115;52.002;4.686;2023-04-20T12:43:53;101922.72;;;10.96;62.88
59337;BME280;45115;52.002;4.686;2023-04-20T12:46:20;101918.22;;;10.95;61.48
59337;BME280;45115;52.002;4.686;2023-04-20T12:48:47;101915.56;;;10.83;61.83
59337;BME280;45115;52.002;4.686;2023-04-20T12:51:13;101930.16;;;10.49;61.65
59337;BME280;45115;52.002;4.686;2023-04-20T12:53:40;101915.06;;;10.43;61.95
59337;BME280;45115;52.002;4.686;2023-04-20T12:56:07;101919.56;;;10.21;62.87
59337;BME280;45115;52.002;4.686;2023-04-20T12:58:35;101921.53;;;10.19;62.87
59337;BME280;45115;52.002;4.686;2023-04-20T13:01:01;101920.59;;;10.07;63.07
59337;BME280;45115;52.002;4.686;2023-04-20T13:03:28;101921.06;;;9.88;63.51
59337;BME280;45115;52.002;4.686;2023-04-20T13:05:55;101918.72;;;9.71;65.30